createdAt,value
2023-04-18T00:00:13.301Z,5.10
2023-04-18T00:02:44.132Z,6.50
2023-04-18T00:05:13.239Z,4.60
2023-04-18T00:07:42.508Z,5.50
2023-04-18T00:10:10.825Z,5.60
2023-04-18T00:12:40.273Z,6.50
2023-04-18T00:15:11.550Z,5.90
2023-04-18T00:17:39.771Z,5.40
2023-04-18T00:20:11.840Z,5.80
2023-04-18T00:22:43.856Z,6.50
2023-04-18T00:25:14.544Z,6.40
2023-04-18T00:27:43.074Z,5.00
2023-04-18T00:30:13.429Z,4.70
2023-04-18T00:32:42.809Z,5.30
2023-04-18T00:35:12.163Z,5.70
2023-04-18T00:37:43.025Z,4.80
2023-04-18T00:40:12.523Z,6.40
2023-04-18T00:42:41.761Z,5.40
2023-04-18T00:45:12.025Z,5.70
2023-04-18T00:47:40.306Z,6.40
2023-04-18T00:50:12.188Z,6.00
2023-04-18T00:52:42.043Z,5.30
2023-04-18T00:55:12.402Z,5.60
2023-04-18T00:57:42.917Z,5.40
2023-04-18T01:00:13.731Z,6.70
2023-04-18T01:02:43.153Z,5.90
2023-04-18T01:05:14.019Z,5.60
2023-04-18T01:07:43.921Z,6.50
2023-04-18T01:10:13.313Z,5.70
2023-04-18T01:12:43.172Z,6.10
2023-04-18T01:15:12.845Z,5.80
2023-04-18T01:17:42.228Z,5.10
2023-04-18T01:20:12.341Z,5.80
2023-04-18T01:22:42.745Z,6.00
2023-04-18T01:25:15.129Z,5.00
2023-04-18T01:27:43.446Z,5.10
2023-04-18T01:30:14.200Z,6.00
2023-04-18T01:32:45.259Z,6.60
2023-04-18T01:35:15.774Z,5.00
2023-04-18T01:37:45.224Z,6.60
2023-04-18T01:40:16.169Z,5.30
2023-04-18T01:42:45.435Z,5.20
2023-04-18T01:45:15.128Z,5.90
2023-04-18T01:47:45.761Z,5.20
2023-04-18T01:50:14.486Z,6.20
2023-04-18T01:52:44.270Z,6.60
2023-04-18T01:55:16.181Z,5.00
2023-04-18T01:57:44.726Z,6.90
2023-04-18T02:00:14.338Z,5.50
2023-04-18T02:02:44.286Z,5.40
2023-04-18T02:05:13.726Z,6.50
2023-04-18T02:10:13.648Z,6.40
2023-04-18T02:12:43.083Z,6.20
2023-04-18T02:15:12.721Z,5.20
2023-04-18T02:17:41.537Z,5.10
2023-04-18T02:20:11.836Z,5.10
2023-04-18T02:22:39.949Z,5.00
2023-04-18T02:25:10.814Z,6.70
2023-04-18T02:27:41.927Z,6.50
2023-04-18T02:30:11.324Z,6.50
2023-04-18T02:32:40.828Z,5.40
2023-04-18T02:35:12.573Z,6.80
2023-04-18T02:37:41.093Z,5.30
2023-04-18T02:40:10.918Z,5.50
2023-04-18T02:42:39.411Z,5.40
2023-04-18T02:45:11.328Z,6.90
2023-04-18T02:47:47.431Z,6.70
2023-04-18T02:50:23.480Z,7.10
2023-04-18T02:52:52.249Z,5.80
2023-04-18T02:55:22.334Z,6.00
2023-04-18T02:57:53.640Z,5.70
2023-04-18T03:01:03.677Z,6.60
2023-04-18T03:03:50.313Z,6.50
2023-04-18T03:06:32.206Z,6.00
2023-04-18T03:09:04.141Z,7.70
2023-04-18T03:14:06.507Z,6.20
2023-04-18T03:16:43.821Z,6.30
2023-04-18T03:19:16.633Z,6.90
2023-04-18T03:21:47.212Z,6.30
2023-04-18T03:24:16.802Z,7.40
2023-04-18T03:26:50.181Z,6.20
2023-04-18T03:29:20.974Z,6.80
2023-04-18T03:31:51.610Z,5.90
2023-04-18T03:34:20.991Z,7.00
2023-04-18T03:36:51.112Z,6.40
2023-04-18T03:39:19.337Z,6.10
2023-04-18T03:41:49.034Z,6.70
2023-04-18T03:44:18.841Z,6.60
2023-04-18T03:46:47.314Z,6.90
2023-04-18T03:49:17.944Z,7.20
2023-04-18T03:51:49.543Z,7.30
2023-04-18T03:56:47.984Z,6.40
2023-04-18T03:59:16.599Z,7.10
2023-04-18T04:01:49.005Z,6.50
2023-04-18T04:04:20.796Z,7.00
2023-04-18T04:06:51.796Z,5.90
2023-04-18T04:09:21.436Z,6.80
2023-04-18T04:11:52.999Z,6.90
2023-04-18T04:14:22.822Z,6.10
2023-04-18T04:16:52.695Z,6.50
2023-04-18T04:19:22.430Z,6.60
2023-04-18T04:22:00.003Z,7.20
2023-04-18T04:24:29.090Z,6.70
2023-04-18T04:26:58.839Z,7.10
2023-04-18T04:29:28.965Z,7.70
2023-04-18T04:32:00.160Z,6.20
2023-04-18T04:34:36.792Z,6.60
2023-04-18T04:37:08.028Z,6.50
2023-04-18T04:39:42.401Z,6.90
2023-04-18T04:42:33.679Z,7.40
2023-04-18T04:45:10.592Z,6.40
2023-04-18T04:47:39.914Z,6.60
2023-04-18T04:50:15.363Z,5.90
2023-04-18T04:52:45.298Z,6.00
2023-04-18T04:55:14.920Z,6.40
2023-04-18T04:57:46.904Z,6.10
2023-04-18T05:03:04.961Z,6.00
2023-04-18T05:05:35.707Z,6.00
2023-04-18T05:08:06.867Z,6.70
2023-04-18T05:10:37.195Z,7.50
2023-04-18T05:13:07.838Z,6.20
2023-04-18T05:15:36.029Z,7.40
2023-04-18T05:18:06.111Z,6.10
2023-04-18T05:20:36.805Z,6.60
2023-04-18T05:23:04.831Z,6.90
2023-04-18T05:25:35.794Z,7.40
2023-04-18T05:28:05.647Z,6.30
2023-04-18T05:30:36.714Z,7.30
2023-04-18T05:33:04.961Z,6.80
2023-04-18T05:35:34.394Z,6.70
2023-04-18T05:38:04.059Z,6.20
2023-04-18T05:40:34.793Z,6.20
2023-04-18T05:43:02.847Z,6.10
2023-04-18T05:45:32.146Z,6.10
2023-04-18T05:48:00.249Z,6.50
2023-04-18T05:50:29.538Z,6.30
2023-04-18T05:52:59.254Z,6.20
2023-04-18T05:55:30.098Z,6.70
2023-04-18T05:57:58.173Z,6.20
2023-04-18T06:00:27.638Z,6.90
2023-04-18T06:02:56.000Z,6.80
2023-04-18T06:05:24.715Z,7.30
2023-04-18T06:07:54.178Z,7.40
2023-04-18T06:10:22.423Z,7.40
2023-04-18T06:12:53.180Z,6.20
2023-04-18T06:15:23.617Z,7.20
2023-04-18T06:17:52.021Z,6.70
2023-04-18T06:20:21.337Z,7.40
2023-04-18T06:22:50.594Z,7.50
2023-04-18T06:25:21.245Z,7.40
2023-04-18T06:27:49.424Z,6.40
2023-04-18T06:30:22.954Z,6.80
2023-04-18T06:32:51.053Z,7.20
2023-04-18T06:35:19.307Z,6.70
2023-04-18T06:37:48.666Z,7.30
2023-04-18T06:40:18.210Z,7.10
2023-04-18T06:42:47.900Z,6.80
2023-04-18T06:45:16.276Z,7.10
2023-04-18T06:47:47.716Z,7.70
2023-04-18T06:50:16.807Z,7.00
2023-04-18T06:55:16.145Z,6.90
2023-04-18T06:57:45.546Z,7.30
2023-04-18T07:00:16.426Z,6.90
2023-04-18T07:02:46.039Z,7.80
2023-04-18T07:05:14.146Z,7.80
2023-04-18T07:07:44.643Z,7.90
2023-04-18T07:10:13.897Z,7.60
2023-04-18T07:12:43.319Z,7.30
2023-04-18T07:15:12.340Z,8.40
2023-04-18T07:17:41.703Z,8.20
2023-04-18T07:20:14.173Z,7.60
2023-04-18T07:22:43.770Z,8.40
2023-04-18T07:25:11.851Z,8.20
2023-04-18T07:27:41.249Z,8.20
2023-04-18T07:30:10.925Z,8.40
2023-04-18T07:35:11.950Z,8.60
2023-04-18T07:37:42.477Z,8.60
2023-04-18T07:40:13.079Z,8.60
2023-04-18T07:42:44.379Z,9.00
2023-04-18T07:45:13.665Z,8.40
2023-04-18T07:47:41.866Z,8.50
2023-04-18T07:50:12.533Z,9.80
2023-04-18T07:52:42.984Z,9.50
2023-04-18T07:55:11.302Z,9.30
2023-04-18T07:57:40.511Z,9.30
2023-04-18T08:00:10.566Z,10.40
2023-04-18T08:02:42.808Z,10.00
2023-04-18T08:05:13.645Z,10.00
2023-04-18T08:07:42.092Z,9.90
2023-04-18T08:12:42.790Z,9.10
2023-04-18T08:15:12.963Z,9.80
2023-04-18T08:17:44.055Z,8.90
2023-04-18T08:20:15.561Z,9.30
2023-04-18T08:22:57.609Z,10.70
2023-04-18T08:25:33.252Z,9.70
2023-04-18T08:28:02.573Z,9.90
2023-04-18T08:30:31.058Z,9.90
2023-04-18T08:33:01.803Z,9.80
2023-04-18T08:35:31.632Z,9.50
2023-04-18T08:38:02.373Z,10.10
2023-04-18T08:40:31.939Z,10.90
2023-04-18T08:43:06.033Z,10.50
2023-04-18T08:45:36.617Z,10.00
2023-04-18T08:48:08.862Z,10.80
2023-04-18T08:50:38.554Z,10.50
2023-04-18T08:53:06.692Z,11.60
2023-04-18T08:55:35.498Z,12.10
2023-04-18T08:58:05.286Z,11.00
2023-04-18T09:00:35.168Z,10.70
2023-04-18T09:03:04.991Z,11.10
2023-04-18T09:05:35.604Z,11.90
2023-04-18T09:08:26.241Z,10.70
2023-04-18T09:10:54.363Z,10.70
2023-04-18T09:13:40.828Z,11.10
2023-04-18T09:16:08.935Z,12.20
2023-04-18T09:21:19.562Z,10.70
2023-04-18T09:23:51.535Z,10.70
2023-04-18T09:26:35.234Z,10.90
2023-04-18T09:29:03.367Z,10.70
2023-04-18T09:31:33.947Z,11.10
2023-04-18T09:34:04.908Z,11.40
2023-04-18T09:36:37.356Z,12.00
2023-04-18T09:39:07.983Z,11.80
2023-04-18T09:41:38.675Z,11.30
2023-04-18T09:44:15.093Z,11.10
2023-04-18T09:46:47.806Z,11.80
2023-04-18T09:49:16.730Z,10.90
2023-04-18T09:51:48.243Z,11.20
2023-04-18T09:54:20.152Z,11.60
2023-04-18T09:56:52.938Z,11.30
2023-04-18T09:59:36.461Z,11.00
2023-04-18T10:02:10.468Z,11.50
2023-04-18T10:04:40.246Z,12.30
2023-04-18T10:07:09.861Z,12.90
2023-04-18T10:09:44.480Z,11.60
2023-04-18T10:12:14.590Z,12.60
2023-04-18T10:14:44.677Z,12.20
2023-04-18T10:17:15.969Z,11.90
2023-04-18T10:19:46.764Z,12.30
2023-04-18T10:22:29.105Z,13.00
2023-04-18T10:24:58.717Z,14.20
2023-04-18T10:28:02.834Z,15.80
2023-04-18T10:30:54.993Z,15.40
2023-04-18T10:33:32.147Z,16.00
2023-04-18T10:36:04.930Z,15.70
2023-04-18T10:38:34.422Z,15.10
2023-04-18T10:41:23.672Z,14.70
2023-04-18T10:44:24.072Z,14.80
2023-04-18T10:47:26.824Z,14.50
2023-04-18T10:50:06.261Z,14.90
2023-04-18T10:52:36.166Z,14.80
2023-04-18T10:55:29.797Z,15.10
2023-04-18T10:58:03.043Z,14.60
2023-04-18T11:00:32.886Z,14.70
2023-04-18T11:03:02.571Z,14.90
2023-04-18T11:05:32.346Z,15.00
2023-04-18T11:08:01.651Z,15.00
2023-04-18T11:10:30.885Z,14.90
2023-04-18T11:13:04.673Z,15.30
2023-04-18T11:15:39.765Z,15.60
2023-04-18T11:18:12.173Z,15.50
2023-04-18T11:20:46.999Z,15.50
2023-04-18T11:23:20.858Z,15.80
2023-04-18T11:25:51.947Z,16.50
2023-04-18T11:28:25.985Z,16.90
2023-04-18T11:30:58.819Z,16.80
2023-04-18T11:33:31.494Z,16.70
2023-04-18T11:36:00.223Z,17.00
2023-04-18T11:38:32.432Z,16.80
2023-04-18T11:41:03.248Z,16.50
2023-04-18T11:43:35.064Z,16.10
2023-04-18T11:46:03.255Z,15.70
2023-04-18T11:48:38.232Z,15.40
2023-04-18T11:51:07.104Z,15.10
2023-04-18T11:53:37.892Z,15.30
2023-04-18T11:56:08.362Z,15.60
2023-04-18T11:58:38.219Z,15.40
2023-04-18T12:01:20.225Z,15.20
2023-04-18T12:04:03.408Z,14.90
2023-04-18T12:06:48.817Z,14.70
2023-04-18T12:09:19.786Z,14.60
2023-04-18T12:12:00.486Z,14.50
2023-04-18T12:14:30.772Z,14.30
2023-04-18T12:17:01.288Z,14.10
2023-04-18T12:19:32.627Z,14.10
2023-04-18T12:22:03.136Z,14.00
2023-04-18T12:24:32.278Z,14.50
2023-04-18T12:27:00.900Z,15.70
2023-04-18T12:29:31.765Z,14.30
2023-04-18T12:32:01.081Z,14.40
2023-04-18T12:34:31.612Z,14.40
2023-04-18T12:37:00.085Z,14.20
2023-04-18T12:39:29.331Z,14.00
2023-04-18T12:41:59.792Z,14.00
2023-04-18T12:44:27.886Z,14.10
2023-04-18T12:46:58.552Z,14.40
2023-04-18T12:49:27.820Z,15.10
2023-04-18T12:51:58.247Z,14.80
2023-04-18T12:54:26.423Z,15.00
2023-04-18T12:56:54.459Z,16.90
2023-04-18T12:59:22.533Z,16.90
2023-04-18T13:01:52.985Z,17.50
2023-04-18T13:04:23.979Z,17.50
2023-04-18T13:06:54.930Z,17.80
2023-04-18T13:09:24.445Z,18.00
2023-04-18T13:11:53.709Z,17.90
2023-04-18T13:14:23.152Z,17.30
2023-04-18T13:16:53.731Z,16.50
2023-04-18T13:19:24.503Z,16.20
2023-04-18T13:21:55.387Z,17.40
2023-04-18T13:24:23.462Z,17.50
2023-04-18T13:26:52.794Z,18.50
2023-04-18T13:29:22.117Z,17.20
2023-04-18T13:31:53.029Z,16.80
2023-04-18T13:34:21.085Z,17.00
2023-04-18T13:36:51.885Z,17.60
2023-04-18T13:39:20.681Z,17.70
2023-04-18T13:41:48.765Z,17.80
2023-04-18T13:44:18.073Z,18.40
2023-04-18T13:46:47.485Z,18.90
2023-04-18T13:49:16.747Z,18.80
2023-04-18T13:51:45.991Z,17.80
2023-04-18T13:54:16.917Z,17.30
2023-04-18T13:56:47.477Z,16.90
2023-04-18T13:59:16.220Z,16.80
2023-04-18T14:01:46.879Z,17.10
2023-04-18T14:04:15.177Z,17.30
2023-04-18T14:06:47.352Z,17.60
2023-04-18T14:09:18.457Z,18.30
2023-04-18T14:11:48.386Z,19.10
2023-04-18T14:14:16.451Z,19.50
2023-04-18T14:16:45.707Z,19.50
2023-04-18T14:19:14.048Z,19.40
2023-04-18T14:21:43.497Z,19.50
2023-04-18T14:24:13.468Z,19.50
2023-04-18T14:26:43.072Z,19.30
2023-04-18T14:29:14.236Z,19.20
2023-04-18T14:31:45.055Z,19.20
2023-04-18T14:34:13.424Z,19.00
2023-04-18T14:36:43.915Z,18.90
2023-04-18T14:39:13.812Z,18.80
2023-04-18T14:41:45.887Z,19.00
2023-04-18T14:44:14.350Z,18.90
2023-04-18T14:46:43.963Z,18.70
2023-04-18T14:49:12.340Z,18.80
2023-04-18T14:51:41.697Z,19.10
2023-04-18T14:54:11.098Z,19.20
2023-04-18T14:56:39.433Z,19.10
2023-04-18T14:59:08.907Z,19.40
2023-04-18T15:01:38.269Z,19.20
2023-04-18T15:04:08.322Z,19.00
2023-04-18T15:06:36.965Z,18.90
2023-04-18T15:09:06.531Z,18.50
2023-04-18T15:11:34.646Z,18.30
2023-04-18T15:14:02.933Z,18.20
2023-04-18T15:16:32.253Z,18.10
2023-04-18T15:19:00.558Z,18.10
2023-04-18T15:21:31.000Z,18.60
2023-04-18T15:24:00.496Z,18.40
2023-04-18T15:26:31.054Z,18.40
2023-04-18T15:29:03.679Z,18.40
2023-04-18T15:31:33.986Z,18.40
2023-04-18T15:34:03.735Z,18.50
2023-04-18T15:36:32.437Z,18.00
2023-04-18T15:39:02.374Z,17.90
2023-04-18T15:41:32.906Z,17.60
2023-04-18T15:44:00.961Z,17.50
2023-04-18T15:46:30.799Z,17.50
2023-04-18T15:49:00.180Z,17.50
2023-04-18T15:51:31.436Z,17.80
2023-04-18T15:54:00.830Z,17.50
2023-04-18T15:56:32.520Z,17.10
2023-04-18T15:59:04.630Z,16.90
2023-04-18T16:01:34.165Z,16.90
2023-04-18T16:04:05.150Z,17.30
2023-04-18T16:06:33.657Z,17.00
2023-04-18T16:09:03.602Z,16.70
2023-04-18T16:11:32.872Z,16.50
2023-04-18T16:14:00.929Z,17.20
2023-04-18T16:16:29.514Z,16.30
2023-04-18T16:18:57.679Z,16.60
2023-04-18T16:21:29.537Z,15.80
2023-04-18T16:23:59.152Z,15.60
2023-04-18T16:26:29.764Z,15.30
2023-04-18T16:28:59.288Z,14.90
2023-04-18T16:31:29.891Z,14.70
2023-04-18T16:33:59.199Z,14.60
2023-04-18T16:36:28.710Z,14.30
2023-04-18T16:38:58.004Z,14.00
2023-04-18T16:41:27.282Z,14.10
2023-04-18T16:43:55.565Z,14.30
2023-04-18T16:46:23.683Z,14.50
2023-04-18T16:48:52.975Z,14.70
2023-04-18T16:51:23.474Z,14.20
2023-04-18T16:53:54.404Z,14.60
2023-04-18T16:56:22.458Z,14.50
2023-04-18T16:58:52.044Z,14.50
2023-04-18T17:01:21.393Z,14.20
2023-04-18T17:03:50.976Z,14.00
2023-04-18T17:06:20.611Z,13.90
2023-04-18T17:08:48.952Z,13.60
2023-04-18T17:11:18.365Z,13.50
2023-04-18T17:13:47.732Z,13.50
2023-04-18T17:16:17.022Z,13.40
2023-04-18T17:18:45.398Z,13.40
2023-04-18T17:21:14.726Z,13.30
2023-04-18T17:23:43.978Z,13.00
2023-04-18T17:26:12.156Z,12.90
2023-04-18T17:28:42.954Z,12.70
2023-04-18T17:31:16.348Z,12.50
2023-04-18T17:36:15.269Z,12.40
2023-04-18T17:41:19.790Z,12.30
2023-04-18T17:43:51.825Z,12.20
2023-04-18T17:46:21.218Z,12.30
2023-04-18T17:48:49.543Z,12.10
2023-04-18T17:51:19.273Z,11.80
2023-04-18T17:53:47.587Z,11.90
2023-04-18T17:56:16.355Z,11.50
2023-04-18T17:58:45.663Z,11.40
2023-04-18T18:01:18.642Z,11.20
2023-04-18T18:03:48.769Z,11.00
2023-04-18T18:08:47.996Z,10.40
2023-04-18T18:11:18.728Z,10.30
2023-04-18T18:13:50.761Z,9.90
2023-04-18T18:16:21.788Z,9.70
2023-04-18T18:18:51.746Z,9.80
2023-04-18T18:21:22.274Z,10.10
2023-04-18T18:26:19.884Z,9.30
2023-04-18T18:28:49.222Z,9.40
2023-04-18T18:31:23.715Z,9.40
2023-04-18T18:33:53.239Z,8.90
2023-04-18T18:36:21.283Z,9.70
2023-04-18T18:38:50.494Z,9.80
2023-04-18T18:41:19.715Z,9.90
2023-04-18T18:43:47.987Z,9.00
2023-04-18T18:46:17.412Z,9.90
2023-04-18T18:48:45.606Z,9.40
2023-04-18T18:51:16.524Z,9.10
2023-04-18T18:53:47.079Z,9.20
2023-04-18T18:56:17.724Z,9.00
2023-04-18T18:58:47.069Z,9.70
2023-04-18T19:01:16.417Z,9.10
2023-04-18T19:03:46.849Z,9.70
2023-04-18T19:06:19.067Z,9.40
2023-04-18T19:08:47.067Z,9.50
2023-04-18T19:13:46.326Z,10.30
2023-04-18T19:16:14.486Z,9.80
2023-04-18T19:18:46.894Z,10.30
2023-04-18T19:21:15.268Z,9.40
2023-04-18T19:23:45.178Z,9.70
2023-04-18T19:26:15.661Z,11.30
2023-04-18T19:28:43.749Z,10.40
2023-04-18T19:31:13.104Z,10.30
2023-04-18T19:36:10.946Z,10.10
2023-04-18T19:38:40.170Z,10.20
2023-04-18T19:41:11.297Z,10.30
2023-04-18T19:43:40.775Z,10.40
2023-04-18T19:46:11.429Z,9.90
2023-04-18T19:48:40.741Z,9.30
2023-04-18T19:51:11.430Z,9.70
2023-04-18T19:53:40.226Z,10.40
2023-04-18T19:56:13.695Z,10.50
2023-04-18T19:58:46.576Z,10.20
2023-04-18T20:01:18.526Z,10.80
2023-04-18T20:03:46.967Z,10.60
2023-04-18T20:06:19.560Z,10.30
2023-04-18T20:08:48.878Z,11.20
2023-04-18T20:11:20.760Z,10.40
2023-04-18T20:13:52.047Z,10.30
2023-04-18T20:16:22.383Z,10.40
2023-04-18T20:18:51.909Z,10.40
2023-04-18T20:21:23.410Z,10.70
2023-04-18T20:23:51.538Z,11.40
2023-04-18T20:26:23.593Z,10.60
2023-04-18T20:28:51.649Z,10.30
2023-04-18T20:31:21.102Z,10.80
2023-04-18T20:33:49.352Z,10.20
2023-04-18T20:36:18.509Z,10.20
2023-04-18T20:38:46.740Z,10.40
2023-04-18T20:41:18.109Z,11.10
2023-04-18T20:43:50.625Z,11.30
2023-04-18T20:46:20.030Z,10.60
2023-04-18T20:48:49.320Z,10.50
2023-04-18T20:51:17.422Z,10.80
2023-04-18T20:53:45.952Z,10.70
2023-04-18T20:56:15.272Z,11.20
2023-04-18T20:58:46.015Z,10.90
2023-04-18T21:01:15.699Z,10.70
2023-04-18T21:03:44.043Z,10.60
2023-04-18T21:06:13.363Z,10.80
2023-04-18T21:08:43.964Z,10.80
2023-04-18T21:11:13.210Z,10.50
2023-04-18T21:13:43.725Z,10.50
2023-04-18T21:16:12.046Z,10.10
2023-04-18T21:18:42.702Z,10.80
2023-04-18T21:21:12.393Z,11.10
2023-04-18T21:23:45.103Z,11.10
2023-04-18T21:26:14.233Z,11.40
2023-04-18T21:28:59.895Z,10.90
2023-04-18T21:31:33.001Z,10.50
2023-04-18T21:34:06.012Z,10.40
2023-04-18T21:36:34.285Z,11.00
2023-04-18T21:39:05.245Z,11.10
2023-04-18T21:41:33.242Z,10.90
2023-04-18T21:44:03.775Z,10.20
2023-04-18T21:46:31.806Z,10.90
2023-04-18T21:48:59.825Z,9.80
2023-04-18T21:51:32.086Z,11.20
2023-04-18T21:54:02.168Z,10.80
2023-04-18T21:56:31.437Z,10.70
2023-04-18T21:59:02.164Z,11.30
2023-04-18T22:01:33.479Z,10.40
2023-04-18T22:04:03.134Z,10.60
2023-04-18T22:06:34.779Z,10.90
2023-04-18T22:09:02.884Z,11.20
2023-04-18T22:11:30.935Z,10.60
2023-04-18T22:14:00.407Z,10.40
2023-04-18T22:16:30.475Z,10.70
2023-04-18T22:19:02.321Z,10.40
2023-04-18T22:21:33.189Z,10.80
2023-04-18T22:24:02.482Z,11.00
2023-04-18T22:26:31.758Z,10.90
2023-04-18T22:29:01.128Z,10.80
2023-04-18T22:31:29.327Z,11.20
2023-04-18T22:33:58.605Z,11.30
2023-04-18T22:36:27.556Z,10.90
2023-04-18T22:38:58.186Z,11.50
2023-04-18T22:41:27.723Z,10.50
2023-04-18T22:43:56.993Z,11.10
2023-04-18T22:46:27.200Z,10.80
2023-04-18T22:48:58.134Z,10.00
2023-04-18T22:51:28.779Z,10.90
2023-04-18T22:53:59.545Z,10.20
2023-04-18T22:56:27.631Z,10.60
2023-04-18T22:58:58.185Z,10.70
2023-04-18T23:01:27.483Z,10.20
2023-04-18T23:03:55.985Z,11.00
2023-04-18T23:06:24.175Z,11.20
2023-04-18T23:08:54.989Z,10.60
2023-04-18T23:11:26.215Z,9.80
2023-04-18T23:13:55.528Z,8.80
2023-04-18T23:16:23.919Z,10.40
2023-04-18T23:18:54.402Z,11.10
2023-04-18T23:21:22.460Z,9.70
2023-04-18T23:23:51.742Z,9.70
2023-04-18T23:26:20.676Z,10.30
2023-04-18T23:28:53.054Z,11.10
2023-04-18T23:31:23.079Z,9.60
2023-04-18T23:33:51.176Z,10.30
2023-04-18T23:36:19.263Z,10.40
2023-04-18T23:38:48.539Z,9.70
2023-04-18T23:41:16.590Z,10.10
2023-04-18T23:43:44.944Z,6.90
2023-04-18T23:46:14.448Z,9.20
2023-04-18T23:48:43.720Z,10.50
2023-04-18T23:51:12.004Z,9.80
2023-04-18T23:56:09.707Z,10.30
2023-04-18T23:58:40.339Z,8.90
